Time;durP1;ratioP1;P1;durP2;ratioP2;P2;SDS_P1;SDS_P2;PMS_P1;PMS_P2;Temp;Humidity;BMP_temperature;BMP_pressure;BME280_temperature;BME280_humidity;BME280_pressure;Samples;Min_cycle;Max_cycle;Signal;HPM_P1;HPM_P2
2022/06/09 00:01:22;;;;;;;2.25;1.17;;;;;;;13.91;100.00;98439.66;5078435;28;20534;-84
2022/06/09 00:03:52;;;;;;;5.28;1.38;;;;;;;13.83;100.00;98429.00;5079521;28;20059;-84
2022/06/09 00:06:18;;;;;;;2.22;1.23;;;;;;;13.92;100.00;98435.84;5069575;28;20087;-84
2022/06/09 00:08:50;;;;;;;2.67;1.02;;;;;;;13.89;100.00;98443.66;5069738;28;20044;-84
2022/06/09 00:11:20;;;;;;;3.13;1.13;;;;;;;13.89;100.00;98438.19;5072331;28;20074;-84
2022/06/09 00:13:47;;;;;;;1.65;1.10;;;;;;;13.92;100.00;98445.94;5083090;28;20439;-84
2022/06/09 00:16:14;;;;;;;4.95;1.10;;;;;;;13.97;100.00;98452.41;5052874;28;20045;-84
2022/06/09 00:18:41;;;;;;;1.60;0.98;;;;;;;13.78;100.00;98413.28;5066920;28;20151;-84
2022/06/09 00:21:08;;;;;;;4.80;1.15;;;;;;;13.89;100.00;98432.72;5083096;28;20048;-84
2022/06/09 00:23:36;;;;;;;7.38;1.33;;;;;;;13.79;100.00;98427.78;5075303;28;20419;-84
2022/06/09 00:26:04;;;;;;;7.10;1.35;;;;;;;13.95;100.00;98457.25;5078587;28;20055;-85
2022/06/09 00:28:32;;;;;;;4.00;1.90;;;;;;;14.02;100.00;98461.84;5076079;28;20044;-84
2022/06/09 00:30:58;;;;;;;5.00;1.60;;;;;;;14.10;100.00;98451.44;5080538;28;20059;-84
2022/06/09 00:33:25;;;;;;;2.55;1.35;;;;;;;14.21;100.00;98457.22;5071304;28;20131;-84
2022/06/09 00:35:51;;;;;;;5.78;1.15;;;;;;;14.16;100.00;98455.19;5073200;28;20058;-85
2022/06/09 00:38:18;;;;;;;7.10;1.40;;;;;;;14.20;100.00;98453.66;5083682;28;20052;-84
2022/06/09 00:40:45;;;;;;;3.72;1.40;;;;;;;14.24;100.00;98468.56;5080564;28;20044;-84
2022/06/09 00:43:13;;;;;;;4.05;1.38;;;;;;;14.10;100.00;98450.63;5070471;28;20056;-85
2022/06/09 00:45:42;;;;;;;4.85;1.40;;;;;;;14.28;100.00;98464.31;5078265;28;20052;-84
2022/06/09 00:48:22;;;;;;;2.65;1.20;;;;;;;14.25;100.00;98459.28;5068503;28;20055;-84
2022/06/09 00:50:53;;;;;;;7.03;1.48;;;;;;;14.12;100.00;98441.13;5078493;28;20059;-84
2022/06/09 00:53:22;;;;;;;2.35;1.17;;;;;;;14.09;100.00;98455.25;5071898;28;20040;-85
2022/06/09 00:55:50;;;;;;;5.28;1.10;;;;;;;14.16;100.00;98464.19;5079478;28;20065;-85
2022/06/09 00:58:21;;;;;;;2.53;1.10;;;;;;;14.18;100.00;98446.75;5073666;28;20040;-84
2022/06/09 01:00:51;;;;;;;4.72;1.25;;;;;;;14.21;100.00;98455.34;5079886;28;20414;-84
2022/06/09 01:03:21;;;;;;;1.55;1.10;;;;;;;14.22;100.00;98453.44;5064343;28;20399;-85
2022/06/09 01:05:49;;;;;;;4.38;1.52;;;;;;;14.20;100.00;98440.00;5076622;28;20053;-84
2022/06/09 01:08:17;;;;;;;4.05;1.05;;;;;;;14.30;100.00;98461.34;5070504;28;20060;-85
2022/06/09 01:10:45;;;;;;;6.00;1.27;;;;;;;14.24;100.00;98457.63;5079206;28;20483;-85
2022/06/09 01:13:12;;;;;;;3.33;1.05;;;;;;;14.21;100.00;98455.34;5078778;28;20458;-84
2022/06/09 01:15:49;;;;;;;3.70;1.10;;;;;;;14.17;100.00;98456.84;5068067;28;20044;-84
2022/06/09 01:18:28;;;;;;;4.20;0.90;;;;;;;14.16;100.00;98463.38;5078609;28;20079;-85
2022/06/09 01:21:03;;;;;;;2.42;1.00;;;;;;;14.21;100.00;98457.22;5076796;28;20135;-84
2022/06/09 01:24:01;;;;;;;3.47;0.85;;;;;;;14.05;100.00;98434.91;5071581;28;20060;-84
2022/06/09 01:27:14;;;;;;;0.90;0.80;;;;;;;14.16;100.00;98464.19;5073042;28;20048;-85
2022/06/09 01:30:06;;;;;;;3.88;0.80;;;;;;;14.24;100.00;98467.72;5069072;28;20051;-84
2022/06/09 01:32:38;;;;;;;5.22;0.98;;;;;;;14.14;100.00;98458.13;5069437;28;20143;-85
2022/06/09 01:35:15;;;;;;;8.02;1.10;;;;;;;14.14;100.00;98455.41;5059115;28;20075;-85
2022/06/09 01:37:45;;;;;;;2.05;0.77;;;;;;;14.16;100.00;98469.66;5065311;28;20048;-85
2022/06/09 01:40:14;;;;;;;0.98;0.88;;;;;;;14.03;100.00;98468.97;5079827;28;20051;-85
2022/06/09 01:42:44;;;;;;;0.70;0.70;;;;;;;14.02;100.00;98461.84;5062142;28;20488;-85
2022/06/09 01:45:13;;;;;;;;;;;;;;;14.15;100.00;98473.50;5072998;28;20048;-84
2022/06/09 01:47:46;;;;;;;1.38;0.60;;;;;;;13.83;100.00;98459.06;5064055;28;19921;-84
2022/06/09 01:50:20;;;;;;;1.05;0.70;;;;;;;13.98;100.00;98469.63;5071105;28;20063;-83
2022/06/09 01:52:48;;;;;;;2.15;0.47;;;;;;;13.95;100.00;98479.13;5074349;28;20476;-85
2022/06/09 01:55:18;;;;;;;1.00;0.30;;;;;;;13.78;100.00;98459.72;5058865;28;20048;-85
2022/06/09 01:57:48;;;;;;;1.58;0.25;;;;;;;13.96;100.00;98485.44;5063303;28;20052;-84
2022/06/09 02:00:18;;;;;;;0.40;0.40;;;;;;;13.72;100.00;98468.81;5070977;28;20404;-85
2022/06/09 02:02:50;;;;;;;0.93;0.60;;;;;;;13.94;100.00;98484.81;5072360;28;20045;-85
2022/06/09 02:05:21;;;;;;;4.00;0.73;;;;;;;13.84;100.00;98477.13;5070783;28;20045;-84
2022/06/09 02:07:50;;;;;;;1.85;0.60;;;;;;;13.87;100.00;98478.59;5078217;28;20155;-85
2022/06/09 02:10:20;;;;;;;2.25;0.38;;;;;;;13.83;100.00;98480.06;5080854;28;20075;-85
2022/06/09 02:12:48;;;;;;;0.68;0.43;;;;;;;13.92;100.00;98481.47;5076908;28;20137;-86
2022/06/09 02:15:25;;;;;;;0.45;0.35;;;;;;;13.84;100.00;98481.75;5070538;28;20103;-85
2022/06/09 02:17:54;;;;;;;1.83;0.45;;;;;;;13.81;100.00;98480.31;5071464;28;20047;-86
2022/06/09 02:20:23;;;;;;;0.77;0.47;;;;;;;13.91;100.00;98499.78;5075253;28;20036;-85
2022/06/09 02:22:51;;;;;;;0.38;0.38;;;;;;;13.78;100.00;98491.69;5068677;28;20823;-86
2022/06/09 02:25:19;;;;;;;1.88;0.50;;;;;;;13.81;100.00;98497.53;5067334;28;20051;-86
2022/06/09 02:27:45;;;;;;;0.90;0.60;;;;;;;13.76;100.00;98483.69;5064164;28;20047;-85
2022/06/09 02:30:13;;;;;;;0.50;0.50;;;;;;;13.73;100.00;98472.38;5067489;28;20135;-86
2022/06/09 02:32:40;;;;;;;0.65;0.60;;;;;;;13.84;100.00;98493.50;5080590;28;20607;-85
2022/06/09 02:35:10;;;;;;;0.50;0.50;;;;;;;13.70;100.00;98481.00;5075850;28;20570;-86
2022/06/09 02:37:36;;;;;;;0.90;0.80;;;;;;;13.65;100.00;98468.03;5071527;28;20048;-85
2022/06/09 02:40:05;;;;;;;1.92;0.73;;;;;;;13.62;100.00;98479.38;5077117;28;20059;-85
2022/06/09 02:42:31;;;;;;;0.57;0.50;;;;;;;13.78;100.00;98497.97;5084640;28;20044;-85
2022/06/09 02:44:58;;;;;;;1.48;0.70;;;;;;;13.87;100.00;98501.25;5060281;28;20048;-85
2022/06/09 02:47:25;;;;;;;0.60;0.52;;;;;;;13.65;100.00;98500.78;5070913;28;20418;-85
2022/06/09 02:49:52;;;;;;;1.58;0.65;;;;;;;13.71;100.00;98505.38;5066639;28;20044;-85
2022/06/09 02:52:20;;;;;;;0.68;0.50;;;;;;;13.72;100.00;98495.28;5082969;28;20075;-84
2022/06/09 02:54:46;;;;;;;0.68;0.65;;;;;;;13.69;100.00;98493.00;5071242;28;20140;-85
2022/06/09 02:57:13;;;;;;;0.85;0.80;;;;;;;13.64;100.00;98482.75;5086204;28;20499;-85
2022/06/09 02:59:40;;;;;;;1.40;0.68;;;;;;;13.71;100.00;98505.38;5057245;28;20480;-85
2022/06/09 03:02:06;;;;;;;3.90;0.80;;;;;;;13.75;100.00;98524.91;5060685;28;20036;-87
2022/06/09 03:04:33;;;;;;;1.52;0.60;;;;;;;13.72;100.00;98522.63;5080766;28;20060;-85
2022/06/09 03:07:00;;;;;;;2.97;0.90;;;;;;;13.59;100.00;98507.16;5076982;28;20051;-85
2022/06/09 03:09:28;;;;;;;3.22;0.68;;;;;;;13.65;100.00;98498.06;5073517;28;20044;-85
2022/06/09 03:11:55;;;;;;;1.70;0.60;;;;;;;13.70;100.00;98520.09;5071908;28;20131;-85
2022/06/09 03:14:22;;;;;;;1.42;0.73;;;;;;;13.71;100.00;98527.22;5063744;28;20075;-85
2022/06/09 03:16:50;;;;;;;9.52;2.05;;;;;;;13.71;100.00;98518.19;5068462;28;20415;-85
2022/06/09 03:19:17;;;;;;;2.17;0.80;;;;;;;13.73;100.00;98525.13;5080102;28;20384;-85
2022/06/09 03:21:43;;;;;;;1.90;0.70;;;;;;;13.65;100.00;98530.84;5077842;28;20052;-85
2022/06/09 03:24:10;;;;;;;3.97;0.77;;;;;;;13.57;100.00;98533.84;5066469;28;20143;-85
2022/06/09 03:26:38;;;;;;;3.60;0.80;;;;;;;13.50;100.00;98527.59;5074359;28;20128;-85
2022/06/09 03:29:05;;;;;;;4.53;0.73;;;;;;;13.42;100.00;98518.59;5067017;28;21516;-85
2022/06/09 03:31:31;;;;;;;2.85;0.85;;;;;;;13.49;100.00;98532.22;5062208;28;20044;-84
2022/06/09 03:33:58;;;;;;;6.90;0.90;;;;;;;13.38;100.00;98514.66;5062279;28;20357;-85
2022/06/09 03:36:25;;;;;;;3.38;1.10;;;;;;;13.37;100.00;98528.47;5066868;28;20075;-85
2022/06/09 03:38:52;;;;;;;2.97;0.98;;;;;;;13.39;100.00;98534.59;5078972;28;20040;-85
2022/06/09 03:41:19;;;;;;;2.35;1.00;;;;;;;13.52;100.00;98539.09;5080297;28;20579;-85
2022/06/09 03:43:47;;;;;;;4.85;1.00;;;;;;;13.42;100.00;98540.44;5068486;28;20582;-86
2022/06/09 03:46:13;;;;;;;3.75;0.73;;;;;;;13.45;100.00;98556.38;5086229;28;20075;-84
2022/06/09 03:48:40;;;;;;;1.75;1.00;;;;;;;13.38;100.00;98546.53;5094361;28;20036;-86
2022/06/09 03:51:07;;;;;;;2.67;0.70;;;;;;;13.38;100.00;98552.88;5096238;28;20506;-85
2022/06/09 03:53:33;;;;;;;1.65;1.02;;;;;;;13.25;100.00;98536.50;5081498;28;20112;-86
2022/06/09 03:56:01;;;;;;;1.25;0.90;;;;;;;13.26;100.00;98540.91;5072848;28;20476;-87
2022/06/09 03:58:28;;;;;;;4.57;0.88;;;;;;;13.45;100.00;98567.28;5084254;28;20130;-85
2022/06/09 04:00:56;;;;;;;2.00;0.82;;;;;;;13.49;100.00;98566.84;5076304;28;20464;-85
2022/06/09 04:03:24;;;;;;;4.30;1.08;;;;;;;13.44;100.00;98552.00;5074738;28;20040;-85
2022/06/09 04:05:50;;;;;;;2.00;0.90;;;;;;;13.47;100.00;98574.44;5095997;28;20051;-85
2022/06/09 04:08:17;;;;;;;3.22;0.93;;;;;;;13.35;100.00;98550.53;5071404;28;20045;-84
2022/06/09 04:10:44;;;;;;;2.50;1.02;;;;;;;13.45;100.00;98586.41;5065240;28;20307;-85
2022/06/09 04:13:11;;;;;;;3.88;1.20;;;;;;;13.50;100.00;98566.63;5088203;28;20044;-86
2022/06/09 04:15:38;;;;;;;3.22;1.27;;;;;;;13.40;100.00;98550.75;5069257;28;20474;-85
2022/06/09 04:18:07;;;;;;;1.85;1.05;;;;;;;13.34;100.00;98557.06;5081220;28;20076;-85
2022/06/09 04:20:34;;;;;;;3.55;1.17;;;;;;;13.41;100.00;98577.00;5079521;28;20402;-85
2022/06/09 04:23:00;;;;;;;5.18;1.20;;;;;;;13.42;100.00;98586.84;5075805;28;20127;-85
2022/06/09 04:25:28;;;;;;;3.15;1.02;;;;;;;13.47;100.00;98582.63;5081563;28;20072;-86
2022/06/09 04:27:55;;;;;;;1.10;1.00;;;;;;;13.47;100.00;98575.25;5070822;28;20045;-85
2022/06/09 04:30:23;;;;;;;5.20;1.13;;;;;;;13.51;100.00;98567.50;5066290;28;20127;-85
2022/06/09 04:32:49;;;;;;;1.17;0.80;;;;;;;13.55;100.00;98566.84;5069842;28;20059;-85
2022/06/09 04:35:18;;;;;;;2.38;1.38;;;;;;;13.52;100.00;98563.69;5085876;28;20127;-85
2022/06/09 04:38:03;;;;;;;3.83;0.93;;;;;;;13.92;100.00;98582.56;5070337;28;20045;-85
2022/06/09 04:40:33;;;;;;;4.53;1.20;;;;;;;13.91;100.00;98562.63;5071309;28;20036;-80
2022/06/09 04:43:00;;;;;;;4.00;1.02;;;;;;;14.12;100.00;98596.06;5073241;28;20049;-84
2022/06/09 04:45:28;;;;;;;6.07;1.30;;;;;;;14.16;100.00;98595.41;5079753;28;20044;-85
2022/06/09 04:47:55;;;;;;;2.10;1.00;;;;;;;14.06;100.00;98586.88;5074644;28;20135;-85
2022/06/09 04:50:23;;;;;;;9.55;1.27;;;;;;;14.34;100.00;98621.16;5054887;28;20083;-85
2022/06/09 04:52:50;;;;;;;3.70;1.20;;;;;;;14.11;100.00;98608.09;5077112;28;20155;-84
2022/06/09 04:55:17;;;;;;;5.88;1.67;;;;;;;13.97;100.00;98608.19;5072774;28;20400;-85
2022/06/09 04:57:44;;;;;;;1.98;1.30;;;;;;;14.08;100.00;98619.47;5076777;28;20075;-85
2022/06/09 05:00:12;;;;;;;2.72;1.70;;;;;;;14.07;100.00;98629.53;5088138;28;20049;-85
2022/06/09 05:02:39;;;;;;;8.38;2.55;;;;;;;14.03;100.00;98628.34;5059730;28;20048;-84
2022/06/09 05:05:10;;;;;;;3.90;1.58;;;;;;;13.84;100.00;98635.59;5067394;28;20052;-85
2022/06/09 05:07:40;;;;;;;3.67;1.30;;;;;;;13.84;100.00;98630.13;5074770;28;20395;-84
2022/06/09 05:10:08;;;;;;;3.17;1.30;;;;;;;13.75;100.00;98632.25;5073940;28;22086;-84
2022/06/09 05:12:34;;;;;;;4.97;1.58;;;;;;;13.77;100.00;98652.00;5085078;28;20048;-83
2022/06/09 05:15:01;;;;;;;5.47;1.33;;;;;;;13.76;100.00;98646.75;5074692;28;20491;-84
2022/06/09 05:17:28;;;;;;;3.45;1.30;;;;;;;13.82;100.00;98654.09;5075774;28;20123;-84
2022/06/09 05:19:54;;;;;;;5.28;1.25;;;;;;;13.83;100.00;98652.19;5069170;28;20151;-84
2022/06/09 05:22:21;;;;;;;2.10;1.17;;;;;;;13.81;100.00;98650.50;5076546;28;20060;-85
2022/06/09 05:24:49;;;;;;;5.68;1.15;;;;;;;13.92;100.00;98661.81;5087558;28;20150;-84
2022/06/09 05:27:16;;;;;;;1.83;1.20;;;;;;;13.96;100.00;98660.31;5076674;28;20534;-85
2022/06/09 05:29:42;;;;;;;2.92;1.13;;;;;;;13.88;100.00;98645.03;5085227;28;20052;-84
2022/06/09 05:32:10;;;;;;;4.28;1.27;;;;;;;14.05;100.00;98650.81;5072631;28;20061;-85
2022/06/09 05:34:36;;;;;;;4.63;1.50;;;;;;;14.49;100.00;98653.63;5063695;28;20156;-83
2022/06/09 05:37:06;;;;;;;3.50;1.23;;;;;;;14.63;100.00;98644.31;5064665;28;20049;-84
2022/06/09 05:45:08;;;;;;;3.67;1.33;;;;;;;14.76;100.00;98669.88;5082933;28;20097;-84
2022/06/09 05:47:35;;;;;;;5.63;1.27;;;;;;;14.44;100.00;98665.25;5059561;28;20504;-84
2022/06/09 05:50:08;;;;;;;5.28;1.73;;;;;;;14.55;100.00;98660.13;5070045;28;20418;-84
2022/06/09 05:52:35;;;;;;;6.53;1.60;;;;;;;14.56;100.00;98675.44;5063132;28;20052;-84
2022/06/09 05:55:02;;;;;;;4.53;1.35;;;;;;;14.46;100.00;98678.69;5077854;28;20670;-84
2022/06/09 05:57:30;;;;;;;3.92;1.00;;;;;;;14.54;100.00;98678.41;5081460;28;20047;-84
2022/06/09 05:59:57;;;;;;;4.07;1.33;;;;;;;14.71;100.00;98697.91;5076208;28;20051;-83
2022/06/09 06:02:26;;;;;;;5.40;1.33;;;;;;;14.39;100.00;98695.16;5062882;28;20048;-84
2022/06/09 06:04:54;;;;;;;2.17;1.13;;;;;;;14.70;100.00;98696.22;5070600;28;20049;-84
2022/06/09 06:07:23;;;;;;;6.25;0.93;;;;;;;15.09;100.00;98702.38;5075341;28;20048;-85
2022/06/09 06:09:50;;;;;;;2.75;1.08;;;;;;;14.90;100.00;98690.56;5076720;28;20063;-84
2022/06/09 06:12:16;;;;;;;14.10;2.25;;;;;;;14.58;100.00;98693.31;5077838;28;20555;-85
2022/06/09 06:14:44;;;;;;;3.35;1.30;;;;;;;14.63;100.00;98704.50;5075391;28;20052;-84
2022/06/09 06:17:11;;;;;;;4.97;1.35;;;;;;;14.85;100.00;98693.97;5067294;28;20500;-84
2022/06/09 06:19:38;;;;;;;3.97;1.30;;;;;;;15.63;100.00;98721.00;5061272;28;20103;-84
2022/06/09 06:22:05;;;;;;;7.03;1.58;;;;;;;15.48;100.00;98719.47;5069467;28;20041;-82
2022/06/09 06:24:31;;;;;;;1.40;1.30;;;;;;;14.96;100.00;98727.16;5079639;28;20044;-81
2022/06/09 06:26:57;;;;;;;5.45;1.50;;;;;;;14.82;100.00;98731.91;5078580;28;20410;-80
2022/06/09 06:29:27;;;;;;;6.22;1.35;;;;;;;14.98;100.00;98733.22;5079073;28;20056;-80
2022/06/09 06:31:55;;;;;;;2.20;1.33;;;;;;;14.96;100.00;98725.22;5060090;28;20052;-85
2022/06/09 06:34:22;;;;;;;4.93;1.40;;;;;;;14.86;100.00;98731.22;5059987;28;20072;-85
2022/06/09 06:36:49;;;;;;;4.57;2.00;;;;;;;14.89;100.00;98729.09;5065889;28;20054;-85
2022/06/09 06:39:16;;;;;;;3.30;1.02;;;;;;;14.79;100.00;98724.97;5071274;28;20143;-84
2022/06/09 06:41:46;;;;;;;6.43;1.50;;;;;;;15.61;100.00;98748.63;5061987;28;20134;-84
2022/06/09 06:44:16;;;;;;;6.65;1.63;;;;;;;16.43;97.65;98753.72;5067309;28;20049;-85
2022/06/09 06:46:42;;;;;;;;;;;;;;;16.07;97.28;98757.38;5069487;28;20525;-86
2022/06/09 06:49:11;;;;;;;9.20;2.15;;;;;;;15.98;95.50;98734.09;5073560;28;20316;-87
2022/06/09 06:51:38;;;;;;;8.05;1.45;;;;;;;16.08;96.22;98759.91;5085839;28;20471;-85
2022/06/09 06:54:06;;;;;;;6.47;1.10;;;;;;;16.01;92.98;98763.78;5082518;28;20048;-84
2022/06/09 06:56:37;;;;;;;3.22;1.38;;;;;;;15.67;95.24;98749.59;5061522;28;20048;-84
2022/06/09 06:59:05;;;;;;;3.20;1.00;;;;;;;15.49;99.46;98759.50;5067049;28;20044;-83
2022/06/09 07:01:34;;;;;;;9.23;1.52;;;;;;;15.21;100.00;98777.25;5075209;28;20050;-85
2022/06/09 07:04:01;;;;;;;10.07;1.42;;;;;;;15.17;100.00;98767.78;5079944;28;20052;-83
2022/06/09 07:06:32;;;;;;;5.55;1.17;;;;;;;15.10;100.00;98780.72;5071945;28;20056;-84
2022/06/09 07:08:59;;;;;;;6.10;1.10;;;;;;;15.79;99.44;98758.75;5072533;28;20131;-84
2022/06/09 07:11:25;;;;;;;5.80;1.27;;;;;;;16.80;92.61;98778.28;5060465;28;20041;-84
2022/06/09 07:13:52;;;;;;;9.27;2.05;;;;;;;17.16;85.06;98759.16;5071729;28;20047;-83
2022/06/09 07:16:21;;;;;;;4.75;1.40;;;;;;;17.79;83.37;98753.97;5052832;28;20071;-85
2022/06/09 07:18:48;;;;;;;7.72;1.13;;;;;;;17.10;83.07;98751.84;5053527;28;20053;-85
2022/06/09 07:21:18;;;;;;;9.20;1.55;;;;;;;17.03;85.25;98784.94;5055658;28;20052;-84
2022/06/09 07:23:46;;;;;;;;;;;;;;;16.87;85.88;98794.69;5066580;28;20083;-86
2022/06/09 07:26:16;;;;;;;12.48;1.58;;;;;;;17.16;85.39;98783.88;5063594;28;20307;-85
2022/06/09 07:28:43;;;;;;;6.03;1.30;;;;;;;17.71;83.45;98779.09;5066318;28;20123;-85
2022/06/09 07:31:09;;;;;;;4.53;1.60;;;;;;;18.18;76.98;98790.84;5065122;28;20106;-84
2022/06/09 07:33:38;;;;;;;4.60;0.93;;;;;;;18.43;74.59;98791.59;5050759;28;20068;-87
2022/06/09 07:36:12;;;;;;;3.53;1.00;;;;;;;18.60;77.17;98764.97;5059313;28;20071;-88
2022/06/09 07:38:39;;;;;;;7.20;1.20;;;;;;;17.50;79.47;98787.69;5065550;28;20551;-89
2022/06/09 07:41:08;;;;;;;10.43;1.25;;;;;;;16.99;81.58;98786.47;5080423;28;20580;-86
2022/06/09 07:43:34;;;;;;;4.20;0.85;;;;;;;16.76;82.98;98806.44;5055479;28;20045;-86
2022/06/09 07:46:01;;;;;;;6.18;1.80;;;;;;;16.22;85.56;98778.91;5066572;28;20052;-88
2022/06/09 07:48:28;;;;;;;8.02;1.48;;;;;;;16.15;87.46;98811.06;5065839;28;20131;-89
2022/06/09 07:50:56;;;;;;;8.65;0.98;;;;;;;16.18;91.13;98819.66;5055228;28;20048;-84
2022/06/09 07:53:25;;;;;;;5.90;1.50;;;;;;;16.02;93.20;98790.97;5056684;28;20052;-86
2022/06/09 07:55:52;;;;;;;7.88;1.20;;;;;;;16.06;90.19;98792.19;5052263;28;20135;-87
2022/06/09 07:58:23;;;;;;;3.88;1.23;;;;;;;16.19;93.05;98812.28;5065368;28;20071;-87
2022/06/09 08:00:54;;;;;;;7.95;1.58;;;;;;;16.34;92.50;98803.66;5084272;28;20482;-87
2022/06/09 08:03:23;;;;;;;3.70;1.05;;;;;;;16.40;91.31;98810.97;5051114;28;20045;-88
2022/06/09 08:05:53;;;;;;;6.03;1.10;;;;;;;16.34;92.31;98809.97;5070976;28;20136;-89
2022/06/09 08:08:20;;;;;;;6.15;1.30;;;;;;;16.34;93.49;98809.97;5068118;28;20136;-89
2022/06/09 08:10:48;;;;;;;5.57;1.45;;;;;;;16.02;93.41;98801.13;5081009;28;20083;-89
2022/06/09 08:13:16;;;;;;;5.30;1.30;;;;;;;16.28;92.27;98822.69;5091043;28;20333;-87
2022/06/09 08:15:46;;;;;;;9.23;1.50;;;;;;;16.80;90.43;98810.38;5075901;28;20163;-87
2022/06/09 08:18:13;;;;;;;9.27;1.50;;;;;;;17.81;84.41;98820.53;5065500;28;20052;-88
2022/06/09 08:20:41;;;;;;;9.43;1.50;;;;;;;18.25;80.86;98801.72;5085190;28;20049;-88
2022/06/09 08:23:12;;;;;;;11.30;1.55;;;;;;;18.02;81.63;98811.72;5071037;28;20136;-87
2022/06/09 08:25:40;;;;;;;1.90;0.70;;;;;;;17.21;80.80;98802.38;5070249;28;20053;-88
2022/06/09 08:28:08;;;;;;;6.28;1.08;;;;;;;17.24;83.79;98834.91;5057149;28;20064;-88
2022/06/09 08:30:37;;;;;;;4.78;1.10;;;;;;;16.84;82.78;98825.31;5067133;28;20056;-88
2022/06/09 08:33:08;;;;;;;3.67;1.00;;;;;;;16.70;81.96;98799.97;5067298;28;20403;-87
2022/06/09 08:35:36;;;;;;;7.28;1.02;;;;;;;16.78;82.63;98826.25;5072429;28;20458;-90
2022/06/09 08:38:03;;;;;;;4.50;1.45;;;;;;;16.70;85.34;98823.84;5081246;28;20476;-87
2022/06/09 08:40:41;;;;;;;10.65;1.17;;;;;;;16.49;85.81;98833.44;5076076;28;20053;-86
2022/06/09 08:43:19;;;;;;;7.78;1.48;;;;;;;16.53;81.82;98834.63;5054219;28;20056;-84
2022/06/09 08:45:47;;;;;;;6.55;1.20;;;;;;;16.83;83.28;98837.41;5055105;28;20492;-86
2022/06/09 08:48:20;;;;;;;3.58;1.20;;;;;;;17.51;82.86;98841.59;5054508;28;20048;-85
2022/06/09 08:50:56;;;;;;;9.93;1.40;;;;;;;18.28;73.76;98834.25;5070566;28;20048;-86
2022/06/09 08:53:26;;;;;;;5.40;0.90;;;;;;;18.52;69.98;98829.50;5065794;28;20058;-84
2022/06/09 08:55:56;;;;;;;7.15;1.65;;;;;;;17.82;70.58;98835.97;5067251;28;20048;-85
2022/06/09 08:58:24;;;;;;;;;;;;;;;17.73;76.67;98840.16;5062276;28;20052;-87
2022/06/09 09:00:56;;;;;;;2.42;0.90;;;;;;;17.17;76.02;98815.75;5078130;28;19967;-82
2022/06/09 09:03:29;;;;;;;15.70;1.40;;;;;;;16.97;77.75;98827.06;5067146;28;20060;-88
2022/06/09 09:06:01;;;;;;;7.53;1.30;;;;;;;16.85;80.00;98835.25;5073993;28;20049;-85
2022/06/09 09:08:28;;;;;;;4.55;1.30;;;;;;;16.84;84.09;98854.69;5084119;28;20113;-93
2022/06/09 09:11:12;;;;;;;3.80;1.05;;;;;;;16.87;83.14;98855.09;5076295;28;20052;-90
2022/06/09 09:13:45;;;;;;;6.38;1.42;;;;;;;16.92;85.58;98843.41;5076216;28;20055;-92
2022/06/09 09:16:20;;;;;;;5.40;1.13;;;;;;;16.84;83.64;98840.97;5076721;28;20057;-92
2022/06/09 09:18:54;;;;;;;3.25;2.08;;;;;;;16.86;78.73;98864.38;5076043;28;20059;-92
2022/06/09 09:21:44;;;;;;;4.45;1.17;;;;;;;17.51;79.64;98857.25;5073122;28;20468;-92
2022/06/09 09:24:25;;;;;;;5.45;1.35;;;;;;;18.09;72.73;98830.81;5076875;28;20087;-87
2022/06/09 09:27:03;;;;;;;4.05;0.88;;;;;;;18.44;75.44;98840.06;5075595;28;20098;-91
2022/06/09 09:29:36;;;;;;;4.57;0.82;;;;;;;18.78;69.72;98826.44;5074929;28;20083;-89
2022/06/09 09:32:08;;;;;;;6.63;0.95;;;;;;;19.36;67.01;98854.72;5061721;28;20055;-84
2022/06/09 09:34:41;;;;;;;4.05;1.10;;;;;;;19.66;65.05;98851.66;5077112;28;20056;-88
2022/06/09 09:37:20;;;;;;;7.22;1.52;;;;;;;19.50;63.84;98822.19;5078375;28;20476;-89
2022/06/09 09:39:53;;;;;;;7.68;0.98;;;;;;;19.29;69.60;98835.63;5093054;28;20448;-90
2022/06/09 09:42:25;;;;;;;3.38;0.98;;;;;;;19.33;66.51;98839.56;5079990;28;20048;-87
2022/06/09 09:45:16;;;;;;;4.32;1.13;;;;;;;19.78;67.42;98848.81;5055892;28;20140;-87
2022/06/09 09:47:49;;;;;;;4.45;1.38;;;;;;;19.38;65.47;98852.56;5072892;28;20492;-91
2022/06/09 09:50:36;;;;;;;3.33;0.98;;;;;;;18.79;66.06;98855.59;5107100;28;20079;-91
2022/06/09 09:53:25;;;;;;;5.45;1.50;;;;;;;18.98;66.77;98853.53;5098088;28;20067;-87
2022/06/09 09:56:01;;;;;;;6.75;1.00;;;;;;;19.21;61.40;98850.66;5094562;28;20032;-88
2022/06/09 09:58:36;;;;;;;4.60;0.90;;;;;;;19.63;63.52;98857.66;5073933;28;20044;-93
2022/06/09 10:01:06;;;;;;;3.55;1.02;;;;;;;20.04;59.04;98865.72;5060727;28;20411;-91
2022/06/09 10:10:13;;;;;;;2.97;0.93;;;;;;;20.11;59.83;98863.63;5062989;28;20060;-95
2022/06/09 10:12:49;;;;;;;3.10;0.90;;;;;;;20.16;62.51;98838.88;5079026;28;20052;-96
2022/06/09 10:15:23;;;;;;;7.40;0.90;;;;;;;20.42;61.18;98856.59;5078297;28;20076;-95
2022/06/09 10:17:59;;;;;;;1.95;0.80;;;;;;;20.47;57.07;98848.38;5078753;28;20059;-91
2022/06/09 10:20:35;;;;;;;5.32;0.98;;;;;;;20.57;57.78;98861.47;5072717;28;20045;-95
2022/06/09 10:23:23;;;;;;;8.90;1.30;;;;;;;20.62;59.37;98868.97;5072148;28;20040;-88
2022/06/09 10:25:59;;;;;;;3.65;0.93;;;;;;;20.55;57.24;98863.66;5074477;28;20052;-86
2022/06/09 10:28:35;;;;;;;4.60;0.95;;;;;;;20.73;56.84;98851.47;5067491;28;20143;-94
2022/06/09 10:31:15;;;;;;;5.03;0.80;;;;;;;20.97;55.77;98854.75;5063082;28;20144;-92
2022/06/09 10:33:48;;;;;;;6.45;0.80;;;;;;;21.52;56.55;98866.63;5061574;28;20485;-91
2022/06/09 10:36:22;;;;;;;2.75;0.70;;;;;;;20.93;56.06;98874.88;5094699;28;20491;-92
2022/06/09 10:38:57;;;;;;;3.97;0.73;;;;;;;20.38;56.41;98877.50;5094825;28;20052;-88
2022/06/09 10:41:40;;;;;;;6.25;0.80;;;;;;;20.30;58.41;98886.25;5094940;28;20051;-80
2022/06/09 10:44:13;;;;;;;6.55;0.90;;;;;;;20.04;59.20;98885.91;5095119;28;20138;-87
2022/06/09 10:55:14;;;;;;;2.53;0.63;;;;;;;19.70;56.72;98879.56;5059151;28;20498;-92
2022/06/09 10:55:24;;;;;;;4.72;0.80;;;;;;;19.68;58.54;98890.00;5091029;28;20059;-90
2022/06/09 10:58:00;;;;;;;4.70;1.10;;;;;;;20.19;56.65;98884.41;5066263;28;20048;-92
2022/06/09 11:00:36;;;;;;;3.13;0.90;;;;;;;20.40;54.34;98875.34;5064009;28;20044;-92
2022/06/09 11:03:11;;;;;;;5.35;0.90;;;;;;;20.88;53.65;98875.66;5075603;28;20048;-91
2022/06/09 11:06:02;;;;;;;3.20;0.70;;;;;;;21.53;54.78;98887.66;5068392;28;20055;-90
2022/06/09 11:08:39;;;;;;;3.63;0.90;;;;;;;21.61;53.54;98868.91;5061969;28;20062;-87
2022/06/09 11:11:16;;;;;;;3.38;0.77;;;;;;;21.15;53.10;98866.53;5059970;28;20083;-88
2022/06/09 11:13:58;;;;;;;1.65;0.90;;;;;;;20.96;52.03;98889.00;5065540;28;20124;-89
2022/06/09 11:16:39;;;;;;;5.47;0.85;;;;;;;20.42;53.43;98864.88;5071899;28;20044;-86
2022/06/09 11:19:26;;;;;;;4.28;0.88;;;;;;;21.08;50.04;98882.50;5073875;28;20048;-88
2022/06/09 11:22:02;;;;;;;3.45;0.77;;;;;;;21.39;51.31;98883.59;5065530;28;20044;-88
2022/06/09 11:24:35;;;;;;;6.18;1.10;;;;;;;21.08;51.88;98899.09;5062304;28;20064;-89
2022/06/09 11:27:18;;;;;;;3.47;0.95;;;;;;;20.25;55.03;98878.75;5053755;28;20143;-93
2022/06/09 11:30:00;;;;;;;3.58;1.02;;;;;;;19.78;57.07;98885.50;5063227;28;20044;-90
2022/06/09 11:32:34;;;;;;;5.43;1.17;;;;;;;19.69;57.71;98902.69;5075905;28;20055;-83
2022/06/09 11:35:12;;;;;;;4.72;1.17;;;;;;;19.70;57.83;98910.72;5060444;28;20052;-85
2022/06/09 11:38:09;;;;;;;2.83;0.88;;;;;;;19.39;56.70;98887.31;5055543;28;20057;-89
2022/06/09 11:40:46;;;;;;;4.93;1.58;;;;;;;19.09;56.00;98902.22;5053466;28;20303;-85
2022/06/09 11:43:31;;;;;;;3.33;0.70;;;;;;;19.07;57.29;98919.00;5065073;28;20045;-88
2022/06/09 11:46:01;;;;;;;5.68;1.20;;;;;;;19.10;58.05;98892.88;5060532;28;20048;-88
2022/06/09 11:48:33;;;;;;;2.28;0.70;;;;;;;18.96;58.09;98873.06;5070966;28;20044;-89
2022/06/09 11:51:06;;;;;;;9.18;1.20;;;;;;;19.31;57.27;98890.47;5070344;28;20056;-87
2022/06/09 11:53:46;;;;;;;2.88;0.80;;;;;;;19.30;56.33;98886.91;5055566;28;20400;-87
2022/06/09 11:56:37;;;;;;;3.72;0.57;;;;;;;19.70;55.25;98879.56;5065464;28;20072;-90
2022/06/09 11:59:43;;;;;;;5.07;0.90;;;;;;;19.97;52.75;98893.50;5072252;28;20048;-87
2022/06/09 12:02:32;;;;;;;4.03;1.05;;;;;;;20.74;51.19;98880.75;5088274;28;20061;-86
2022/06/09 12:05:15;;;;;;;5.77;1.00;;;;;;;21.38;53.23;98880.03;5060673;28;20045;-85